N62LC KCNM-KBLH
Flight info
| Callsign | N62LC |
|---|---|
| Flight time | N/A |
| Altitude | 25000 |
| Route | DCT TQULA DCT HORBU DCT VISTL |
| Aircraft | CORS/M-SGCB2/S |
Departure
| Time | 2026-05-05 18:13 |
|---|---|
| Airport | Cavern City Air Terminal (KCNM) |
Arrival
| Time | N/A |
|---|---|
| Airport | Blythe Airport (KBLH) |
| Time | Latitude | Longitude | Altitude | Speed | Heading |
|---|---|---|---|---|---|
| 2026-05-05 18:03 | 32.35167 | -104.25652 | 3250 ft | 0 kts | 66° |
| 2026-05-05 18:03 | 32.35168 | -104.25652 | 3250 ft | 0 kts | 66° |
| 2026-05-05 18:08 | 32.35171 | -104.25643 | 3250 ft | 5 kts | 66° |
| 2026-05-05 18:08 | 32.35198 | -104.25636 | 3250 ft | 8 kts | 256° |
| 2026-05-05 18:09 | 32.35185 | -104.25696 | 3249 ft | 7 kts | 256° |
| 2026-05-05 18:09 | 32.35181 | -104.25740 | 3249 ft | 4 kts | 329° |
| 2026-05-05 18:09 | 32.35217 | -104.25761 | 3249 ft | 8 kts | 334° |
| 2026-05-05 18:09 | 32.35264 | -104.25791 | 3249 ft | 7 kts | 299° |
| 2026-05-05 18:10 | 32.35253 | -104.25834 | 3249 ft | 6 kts | 244° |
| 2026-05-05 18:10 | 32.35241 | -104.25860 | 3249 ft | 5 kts | 242° |
| 2026-05-05 18:10 | 32.35223 | -104.25899 | 3249 ft | 3 kts | 242° |
| 2026-05-05 18:10 | 32.35216 | -104.25920 | 3248 ft | 2 kts | 251° |
| 2026-05-05 18:11 | 32.35207 | -104.25942 | 3248 ft | 3 kts | 244° |
| 2026-05-05 18:11 | 32.35198 | -104.25965 | 3248 ft | 7 kts | 243° |
| 2026-05-05 18:11 | 32.35131 | -104.25988 | 3248 ft | 22 kts | 160° |
| 2026-05-05 18:11 | 32.34850 | -104.25867 | 3249 ft | 59 kts | 168° |
| 2026-05-05 18:12 | 32.34361 | -104.25753 | 3252 ft | 87 kts | 162° |
| 2026-05-05 18:12 | 32.33691 | -104.25529 | 3351 ft | 108 kts | 176° |
| 2026-05-05 18:12 | 32.32864 | -104.25361 | 3473 ft | 138 kts | 191° |
| 2026-05-05 18:12 | 32.31918 | -104.25775 | 3585 ft | 164 kts | 209° |
| 2026-05-05 18:13 | 32.30836 | -104.26365 | 3967 ft | 177 kts | 210° |
| 2026-05-05 18:13 | 32.29746 | -104.27247 | 4023 ft | 195 kts | 234° |
| 2026-05-05 18:13 | 32.29307 | -104.28769 | 4325 ft | 204 kts | 270° |
| 2026-05-05 18:13 | 32.29784 | -104.30343 | 4703 ft | 209 kts | 301° |
| 2026-05-05 18:14 | 32.30691 | -104.31672 | 5291 ft | 200 kts | 306° |
| 2026-05-05 18:14 | 32.31582 | -104.32850 | 5882 ft | 188 kts | 307° |
| 2026-05-05 18:14 | 32.32443 | -104.33964 | 6408 ft | 182 kts | 307° |
| 2026-05-05 18:14 | 32.33304 | -104.35086 | 6728 ft | 184 kts | 306° |
| 2026-05-05 18:15 | 32.34086 | -104.36256 | 7105 ft | 180 kts | 297° |
| 2026-05-05 18:15 | 32.34677 | -104.37545 | 7550 ft | 175 kts | 290° |
| 2026-05-05 18:15 | 32.35151 | -104.38836 | 7903 ft | 170 kts | 287° |
| 2026-05-05 18:15 | 32.35555 | -104.40143 | 8327 ft | 166 kts | 283° |
| 2026-05-05 18:16 | 32.35899 | -104.41410 | 8739 ft | 162 kts | 282° |
| 2026-05-05 18:16 | 32.36222 | -104.42670 | 9061 ft | 161 kts | 281° |
| 2026-05-05 18:16 | 32.36541 | -104.43974 | 9414 ft | 169 kts | 280° |
| 2026-05-05 18:16 | 32.36807 | -104.45350 | 9851 ft | 173 kts | 275° |
| 2026-05-05 18:17 | 32.36999 | -104.46782 | 10253 ft | 178 kts | 273° |
| 2026-05-05 18:17 | 32.37209 | -104.48234 | 10649 ft | 182 kts | 275° |
| 2026-05-05 18:17 | 32.37452 | -104.49708 | 11052 ft | 185 kts | 275° |
| 2026-05-05 18:17 | 32.37701 | -104.51215 | 11451 ft | 187 kts | 275° |
| 2026-05-05 18:18 | 32.37938 | -104.52733 | 11867 ft | 190 kts | 275° |
| 2026-05-05 18:18 | 32.38175 | -104.54272 | 12275 ft | 191 kts | 274° |
| 2026-05-05 18:18 | 32.38419 | -104.55823 | 12698 ft | 192 kts | 275° |
| 2026-05-05 18:18 | 32.38667 | -104.57396 | 13125 ft | 194 kts | 275° |
| 2026-05-05 18:19 | 32.38913 | -104.58962 | 13557 ft | 195 kts | 274° |
| 2026-05-05 18:19 | 32.39164 | -104.60556 | 13955 ft | 197 kts | 274° |
| 2026-05-05 18:19 | 32.39412 | -104.62143 | 14333 ft | 198 kts | 274° |
| 2026-05-05 18:19 | 32.39663 | -104.63736 | 14733 ft | 185 kts | 274° |
| 2026-05-05 18:20 | 32.39892 | -104.65151 | 15056 ft | 179 kts | 273° |
| 2026-05-05 18:20 | 32.40111 | -104.66642 | 15430 ft | 186 kts | 273° |
| 2026-05-05 18:20 | 32.40344 | -104.68166 | 15841 ft | 191 kts | 273° |
| 2026-05-05 18:20 | 32.40595 | -104.69725 | 16268 ft | 194 kts | 273° |
| 2026-05-05 18:21 | 32.40846 | -104.71298 | 16702 ft | 198 kts | 273° |
| 2026-05-05 18:21 | 32.41093 | -104.72916 | 17144 ft | 200 kts | 272° |
| 2026-05-05 18:21 | 32.41346 | -104.74547 | 17585 ft | 202 kts | 272° |
| 2026-05-05 18:21 | 32.41603 | -104.76178 | 18040 ft | 203 kts | 272° |
| 2026-05-05 18:22 | 32.41861 | -104.77826 | 18433 ft | 202 kts | 272° |
| 2026-05-05 18:22 | 32.42110 | -104.79449 | 18820 ft | 201 kts | 272° |
| 2026-05-05 18:22 | 32.42364 | -104.81071 | 19204 ft | 199 kts | 271° |
| 2026-05-05 18:22 | 32.42614 | -104.82666 | 19603 ft | 194 kts | 271° |
| 2026-05-05 18:23 | 32.42854 | -104.84228 | 20005 ft | 190 kts | 270° |
| 2026-05-05 18:23 | 32.43085 | -104.85762 | 20411 ft | 192 kts | 270° |
| 2026-05-05 18:23 | 32.43327 | -104.87330 | 20842 ft | 193 kts | 270° |
| 2026-05-05 18:23 | 32.43574 | -104.88899 | 21260 ft | 194 kts | 270° |
| 2026-05-05 18:24 | 32.43817 | -104.90461 | 21689 ft | 194 kts | 270° |
| 2026-05-05 18:24 | 32.44055 | -104.92027 | 22125 ft | 192 kts | 269° |
| 2026-05-05 18:24 | 32.44293 | -104.93572 | 22560 ft | 189 kts | 269° |
| 2026-05-05 18:24 | 32.44530 | -104.95088 | 23004 ft | 185 kts | 269° |
| 2026-05-05 18:25 | 32.44758 | -104.96564 | 23439 ft | 181 kts | 269° |
| 2026-05-05 18:25 | 32.44906 | -104.97529 | 23677 ft | 177 kts | 268° |
| 2026-05-05 18:25 | 32.45195 | -104.99404 | 24178 ft | 169 kts | 267° |
| 2026-05-05 18:25 | 32.45399 | -105.00745 | 24495 ft | 166 kts | 267° |
| 2026-05-05 18:26 | 32.45600 | -105.02119 | 24661 ft | 173 kts | 266° |
| 2026-05-05 18:26 | 32.45815 | -105.03571 | 24755 ft | 183 kts | 268° |
| 2026-05-05 18:26 | 32.46052 | -105.05070 | 24795 ft | 192 kts | 268° |
| 2026-05-05 18:26 | 32.46299 | -105.06670 | 24822 ft | 204 kts | 268° |
| 2026-05-05 18:27 | 32.46560 | -105.08386 | 24836 ft | 216 kts | 269° |
| 2026-05-05 18:27 | 32.46833 | -105.10164 | 24885 ft | 224 kts | 269° |
| 2026-05-05 18:27 | 32.47117 | -105.11981 | 25075 ft | 226 kts | 269° |
| 2026-05-05 18:27 | 32.47401 | -105.13825 | 25366 ft | 224 kts | 269° |
| 2026-05-05 18:28 | 32.47945 | -105.17476 | 25458 ft | 233 kts | 269° |
| 2026-05-05 18:28 | 32.48238 | -105.19420 | 25259 ft | 243 kts | 269° |
| 2026-05-05 18:28 | 32.48549 | -105.21410 | 25101 ft | 250 kts | 270° |
| 2026-05-05 18:29 | 32.48861 | -105.23435 | 25026 ft | 252 kts | 269° |
| 2026-05-05 18:29 | 32.49166 | -105.25461 | 24961 ft | 247 kts | 269° |
| 2026-05-05 18:29 | 32.49467 | -105.27452 | 24945 ft | 244 kts | 269° |
| 2026-05-05 18:29 | 32.49764 | -105.29423 | 24904 ft | 242 kts | 269° |
| 2026-05-05 18:30 | 32.50060 | -105.31390 | 24875 ft | 240 kts | 269° |
| 2026-05-05 18:30 | 32.50353 | -105.33334 | 24855 ft | 239 kts | 269° |
| 2026-05-05 18:30 | 32.50642 | -105.35245 | 24844 ft | 236 kts | 269° |
| 2026-05-05 18:30 | 32.50928 | -105.37146 | 24841 ft | 234 kts | 269° |
| 2026-05-05 18:31 | 32.51210 | -105.39033 | 24844 ft | 231 kts | 268° |
| 2026-05-05 18:31 | 32.51492 | -105.40910 | 24841 ft | 229 kts | 268° |
| 2026-05-05 18:31 | 32.51767 | -105.42746 | 24848 ft | 226 kts | 268° |
| 2026-05-05 18:31 | 32.52041 | -105.44575 | 24844 ft | 225 kts | 268° |
| 2026-05-05 18:32 | 32.52313 | -105.46398 | 24849 ft | 223 kts | 268° |
| 2026-05-05 18:32 | 32.52587 | -105.48217 | 24857 ft | 222 kts | 268° |
| 2026-05-05 18:32 | 32.52851 | -105.50008 | 24861 ft | 222 kts | 268° |
| 2026-05-05 18:32 | 32.53117 | -105.51800 | 24859 ft | 222 kts | 268° |
| 2026-05-05 18:33 | 32.53389 | -105.53605 | 24854 ft | 221 kts | 268° |
| 2026-05-05 18:33 | 32.53655 | -105.55387 | 24861 ft | 220 kts | 268° |
| 2026-05-05 18:33 | 32.53917 | -105.57169 | 24857 ft | 220 kts | 268° |
| 2026-05-05 18:33 | 32.54182 | -105.58946 | 24858 ft | 220 kts | 268° |
| 2026-05-05 18:34 | 32.54452 | -105.60755 | 24859 ft | 220 kts | 268° |
| 2026-05-05 18:34 | 32.54715 | -105.62525 | 24864 ft | 220 kts | 268° |
| 2026-05-05 18:34 | 32.54981 | -105.64326 | 24859 ft | 220 kts | 268° |
| 2026-05-05 18:34 | 32.55246 | -105.66117 | 24863 ft | 220 kts | 268° |
| 2026-05-05 18:35 | 32.55510 | -105.67892 | 24852 ft | 219 kts | 267° |
| 2026-05-05 18:35 | 32.55770 | -105.69657 | 24862 ft | 218 kts | 267° |
| 2026-05-05 18:35 | 32.56029 | -105.71424 | 24865 ft | 218 kts | 267° |
| 2026-05-05 18:35 | 32.56293 | -105.73210 | 24857 ft | 217 kts | 267° |
| 2026-05-05 18:36 | 32.56546 | -105.74936 | 24861 ft | 216 kts | 267° |
| 2026-05-05 18:36 | 32.56804 | -105.76698 | 24857 ft | 216 kts | 267° |
| 2026-05-05 18:36 | 32.57065 | -105.78456 | 24860 ft | 216 kts | 267° |
| 2026-05-05 18:36 | 32.57323 | -105.80205 | 24861 ft | 216 kts | 267° |
| 2026-05-05 18:37 | 32.57580 | -105.81968 | 24856 ft | 215 kts | 267° |
| 2026-05-05 18:37 | 32.57834 | -105.83699 | 24855 ft | 214 kts | 267° |
| 2026-05-05 18:37 | 32.58088 | -105.85432 | 24854 ft | 214 kts | 267° |
| 2026-05-05 18:37 | 32.58344 | -105.87177 | 24872 ft | 213 kts | 267° |
| 2026-05-05 18:38 | 32.58594 | -105.88891 | 24876 ft | 212 kts | 267° |
| 2026-05-05 18:38 | 32.58847 | -105.90633 | 24884 ft | 212 kts | 267° |
| 2026-05-05 18:38 | 32.59096 | -105.92340 | 24889 ft | 212 kts | 267° |
| 2026-05-05 18:38 | 32.59348 | -105.94068 | 24894 ft | 211 kts | 267° |
| 2026-05-05 18:39 | 32.59597 | -105.95781 | 24893 ft | 211 kts | 267° |
| 2026-05-05 18:39 | 32.59844 | -105.97484 | 24899 ft | 211 kts | 267° |
| 2026-05-05 18:39 | 32.60093 | -105.99200 | 24908 ft | 212 kts | 267° |
| 2026-05-05 18:39 | 32.60344 | -106.00951 | 24914 ft | 216 kts | 267° |
| 2026-05-05 18:40 | 32.60600 | -106.02713 | 24923 ft | 220 kts | 268° |
| 2026-05-05 18:40 | 32.60863 | -106.04514 | 24924 ft | 224 kts | 268° |
| 2026-05-05 18:40 | 32.61129 | -106.06352 | 24925 ft | 227 kts | 268° |
| 2026-05-05 18:40 | 32.61307 | -106.07589 | 24932 ft | 229 kts | 268° |
| 2026-05-05 18:41 | 32.61576 | -106.09448 | 24931 ft | 232 kts | 268° |
| 2026-05-05 18:41 | 32.61944 | -106.11996 | 24930 ft | 236 kts | 268° |
| 2026-05-05 18:41 | 32.62130 | -106.13281 | 24933 ft | 237 kts | 268° |
| 2026-05-05 18:41 | 32.62407 | -106.15215 | 24925 ft | 240 kts | 268° |
| 2026-05-05 18:42 | 32.62693 | -106.17198 | 24925 ft | 242 kts | 268° |
| 2026-05-05 18:42 | 32.62974 | -106.19148 | 24927 ft | 243 kts | 268° |
| 2026-05-05 18:42 | 32.63259 | -106.21143 | 24920 ft | 245 kts | 268° |
| 2026-05-05 18:42 | 32.63543 | -106.23127 | 24913 ft | 246 kts | 268° |
| 2026-05-05 18:43 | 32.63830 | -106.25131 | 24908 ft | 247 kts | 269° |
| 2026-05-05 18:43 | 32.64118 | -106.27143 | 24900 ft | 248 kts | 269° |
| 2026-05-05 18:43 | 32.64409 | -106.29186 | 24898 ft | 249 kts | 269° |
| 2026-05-05 18:43 | 32.64719 | -106.31206 | 24900 ft | 252 kts | 270° |
| 2026-05-05 18:44 | 32.65028 | -106.33239 | 24883 ft | 249 kts | 267° |
| 2026-05-05 18:44 | 32.65224 | -106.35275 | 24884 ft | 249 kts | 266° |
| 2026-05-05 18:44 | 32.65448 | -106.37335 | 24872 ft | 251 kts | 268° |
| 2026-05-05 18:44 | 32.65714 | -106.39393 | 24868 ft | 252 kts | 268° |
| 2026-05-05 18:45 | 32.65951 | -106.41431 | 24854 ft | 251 kts | 267° |
| 2026-05-05 18:45 | 32.66177 | -106.43502 | 24839 ft | 252 kts | 267° |
| 2026-05-05 18:45 | 32.66417 | -106.45551 | 24836 ft | 252 kts | 268° |
| 2026-05-05 18:45 | 32.66663 | -106.47619 | 24826 ft | 252 kts | 268° |
| 2026-05-05 18:46 | 32.66898 | -106.49676 | 24821 ft | 252 kts | 267° |
| 2026-05-05 18:46 | 32.67131 | -106.51721 | 24823 ft | 252 kts | 267° |
| 2026-05-05 18:46 | 32.67371 | -106.53789 | 24818 ft | 252 kts | 267° |
| 2026-05-05 18:46 | 32.67613 | -106.55883 | 24858 ft | 254 kts | 267° |
| 2026-05-05 18:47 | 32.67846 | -106.57944 | 24844 ft | 255 kts | 267° |
| 2026-05-05 18:47 | 32.68086 | -106.60029 | 24836 ft | 256 kts | 267° |
| 2026-05-05 18:47 | 32.68328 | -106.62123 | 24831 ft | 256 kts | 267° |
| 2026-05-05 18:47 | 32.68568 | -106.64232 | 24823 ft | 256 kts | 267° |
| 2026-05-05 18:48 | 32.68805 | -106.66316 | 24827 ft | 256 kts | 267° |
| 2026-05-05 18:48 | 32.69047 | -106.68432 | 24824 ft | 256 kts | 267° |
| 2026-05-05 18:48 | 32.69286 | -106.70537 | 24821 ft | 256 kts | 267° |
| 2026-05-05 18:48 | 32.69524 | -106.72634 | 24829 ft | 256 kts | 267° |
| 2026-05-05 18:49 | 32.69760 | -106.74708 | 24824 ft | 256 kts | 267° |
| 2026-05-05 18:49 | 32.69999 | -106.76819 | 24826 ft | 256 kts | 267° |
| 2026-05-05 18:49 | 32.70234 | -106.78900 | 24824 ft | 256 kts | 267° |
| 2026-05-05 18:49 | 32.70471 | -106.81003 | 24827 ft | 255 kts | 267° |
| 2026-05-05 18:50 | 32.70706 | -106.83088 | 24823 ft | 255 kts | 267° |
| 2026-05-05 18:50 | 32.70939 | -106.85158 | 24824 ft | 255 kts | 267° |
| 2026-05-05 18:50 | 32.71175 | -106.87254 | 24823 ft | 254 kts | 267° |
| 2026-05-05 18:50 | 32.71407 | -106.89328 | 24824 ft | 254 kts | 267° |
| 2026-05-05 18:51 | 32.71640 | -106.91402 | 24826 ft | 254 kts | 267° |
| 2026-05-05 18:51 | 32.71873 | -106.93488 | 24825 ft | 253 kts | 267° |
| 2026-05-05 18:51 | 32.72104 | -106.95554 | 24826 ft | 253 kts | 267° |
| 2026-05-05 18:51 | 32.72334 | -106.97619 | 24825 ft | 254 kts | 267° |
| 2026-05-05 18:52 | 32.72567 | -106.99713 | 24819 ft | 254 kts | 267° |
| 2026-05-05 18:52 | 32.72797 | -107.01779 | 24823 ft | 254 kts | 267° |
| 2026-05-05 18:52 | 32.73030 | -107.03875 | 24818 ft | 254 kts | 267° |
| 2026-05-05 18:52 | 32.73258 | -107.05937 | 24818 ft | 253 kts | 267° |
| 2026-05-05 18:53 | 32.73486 | -107.07995 | 24821 ft | 253 kts | 267° |
| 2026-05-05 18:53 | 32.73716 | -107.10071 | 24817 ft | 253 kts | 267° |
| 2026-05-05 18:53 | 32.73945 | -107.12155 | 24824 ft | 253 kts | 267° |
| 2026-05-05 18:53 | 32.74176 | -107.14244 | 24818 ft | 254 kts | 267° |
| 2026-05-05 18:54 | 32.74403 | -107.16309 | 24818 ft | 254 kts | 267° |
| 2026-05-05 18:54 | 32.74630 | -107.18382 | 24824 ft | 254 kts | 267° |
| 2026-05-05 18:54 | 32.74859 | -107.20476 | 24825 ft | 255 kts | 267° |
| 2026-05-05 18:54 | 32.75087 | -107.22554 | 24822 ft | 255 kts | 267° |
| 2026-05-05 18:55 | 32.75315 | -107.24637 | 24823 ft | 255 kts | 267° |
| 2026-05-05 18:55 | 32.75546 | -107.26749 | 24823 ft | 256 kts | 267° |
| 2026-05-05 18:55 | 32.75772 | -107.28824 | 24822 ft | 256 kts | 267° |
| 2026-05-05 18:55 | 32.76000 | -107.30918 | 24823 ft | 255 kts | 267° |
| 2026-05-05 18:56 | 32.76228 | -107.33023 | 24827 ft | 255 kts | 267° |
| 2026-05-05 18:56 | 32.76454 | -107.35103 | 24830 ft | 255 kts | 267° |
| 2026-05-05 18:56 | 32.76681 | -107.37194 | 24831 ft | 255 kts | 267° |
| 2026-05-05 18:56 | 32.76906 | -107.39283 | 24834 ft | 255 kts | 267° |
| 2026-05-05 18:57 | 32.77133 | -107.41378 | 24830 ft | 255 kts | 267° |
| 2026-05-05 18:57 | 32.77355 | -107.43445 | 24834 ft | 254 kts | 267° |
| 2026-05-05 18:57 | 32.77580 | -107.45534 | 24837 ft | 253 kts | 267° |
| 2026-05-05 18:57 | 32.77801 | -107.47597 | 24839 ft | 253 kts | 267° |
| 2026-05-05 18:58 | 32.78025 | -107.49688 | 24844 ft | 253 kts | 267° |
| 2026-05-05 18:58 | 32.78246 | -107.51745 | 24849 ft | 253 kts | 266° |
| 2026-05-05 18:58 | 32.78469 | -107.53832 | 24847 ft | 254 kts | 266° |
| 2026-05-05 18:58 | 32.78689 | -107.55899 | 24848 ft | 254 kts | 266° |
| 2026-05-05 18:59 | 32.78913 | -107.57990 | 24848 ft | 253 kts | 266° |
| 2026-05-05 18:59 | 32.79134 | -107.60058 | 24854 ft | 253 kts | 266° |
| 2026-05-05 18:59 | 32.79354 | -107.62142 | 24855 ft | 253 kts | 266° |
| 2026-05-05 18:59 | 32.79574 | -107.64222 | 24857 ft | 252 kts | 266° |
| 2026-05-05 19:00 | 32.79792 | -107.66266 | 24859 ft | 251 kts | 266° |
| 2026-05-05 19:00 | 32.80011 | -107.68341 | 24871 ft | 251 kts | 266° |
| 2026-05-05 19:00 | 32.80223 | -107.70371 | 24873 ft | 251 kts | 266° |
| 2026-05-05 19:00 | 32.80442 | -107.72439 | 24868 ft | 250 kts | 266° |
| 2026-05-05 19:01 | 32.80657 | -107.74478 | 24873 ft | 250 kts | 266° |
| 2026-05-05 19:01 | 32.80871 | -107.76527 | 24882 ft | 250 kts | 266° |
| 2026-05-05 19:01 | 32.81089 | -107.78579 | 24883 ft | 250 kts | 266° |
| 2026-05-05 19:01 | 32.81304 | -107.80636 | 24890 ft | 250 kts | 266° |
| 2026-05-05 19:02 | 32.81515 | -107.82679 | 24900 ft | 250 kts | 266° |
| 2026-05-05 19:02 | 32.81730 | -107.84731 | 24920 ft | 249 kts | 266° |
| 2026-05-05 19:02 | 32.81943 | -107.86780 | 24935 ft | 249 kts | 266° |
| 2026-05-05 19:02 | 32.82156 | -107.88805 | 24939 ft | 249 kts | 266° |
| 2026-05-05 19:03 | 32.82369 | -107.90858 | 24949 ft | 249 kts | 266° |
| 2026-05-05 19:03 | 32.82577 | -107.92886 | 24959 ft | 248 kts | 266° |
| 2026-05-05 19:03 | 32.82791 | -107.94944 | 24963 ft | 249 kts | 266° |
| 2026-05-05 19:03 | 32.82999 | -107.96965 | 24950 ft | 246 kts | 266° |
| 2026-05-05 19:04 | 32.83208 | -107.98975 | 24935 ft | 244 kts | 266° |
| 2026-05-05 19:04 | 32.83418 | -108.00965 | 24961 ft | 244 kts | 266° |
| 2026-05-05 19:04 | 32.83619 | -108.02979 | 24983 ft | 244 kts | 266° |
| 2026-05-05 19:04 | 32.83821 | -108.04964 | 24988 ft | 244 kts | 266° |
| 2026-05-05 19:05 | 32.84032 | -108.06987 | 24996 ft | 245 kts | 266° |
| 2026-05-05 19:05 | 32.84239 | -108.09003 | 24999 ft | 246 kts | 266° |
| 2026-05-05 19:05 | 32.84442 | -108.11002 | 25003 ft | 246 kts | 266° |
| 2026-05-05 19:05 | 32.84650 | -108.13044 | 25002 ft | 247 kts | 266° |
| 2026-05-05 19:06 | 32.84857 | -108.15075 | 25002 ft | 248 kts | 266° |
| 2026-05-05 19:06 | 32.85065 | -108.17115 | 24996 ft | 249 kts | 266° |
| 2026-05-05 19:06 | 32.85271 | -108.19142 | 24995 ft | 249 kts | 266° |
| 2026-05-05 19:06 | 32.85480 | -108.21205 | 24999 ft | 250 kts | 266° |
| 2026-05-05 19:07 | 32.85688 | -108.23247 | 24986 ft | 250 kts | 266° |
| 2026-05-05 19:07 | 32.85896 | -108.25315 | 24995 ft | 251 kts | 266° |
| 2026-05-05 19:07 | 32.86101 | -108.27376 | 24983 ft | 252 kts | 267° |
| 2026-05-05 19:07 | 32.86313 | -108.29460 | 24978 ft | 253 kts | 267° |
| 2026-05-05 19:08 | 32.86522 | -108.31526 | 24967 ft | 253 kts | 266° |
| 2026-05-05 19:08 | 32.86732 | -108.33611 | 24959 ft | 252 kts | 267° |
| 2026-05-05 19:08 | 32.86936 | -108.35665 | 24958 ft | 253 kts | 267° |
| 2026-05-05 19:08 | 32.87145 | -108.37768 | 24946 ft | 253 kts | 267° |
| 2026-05-05 19:09 | 32.87354 | -108.39839 | 24941 ft | 253 kts | 267° |
| 2026-05-05 19:09 | 32.87561 | -108.41912 | 24932 ft | 253 kts | 267° |
| 2026-05-05 19:09 | 32.87769 | -108.44013 | 24923 ft | 254 kts | 267° |
| 2026-05-05 19:09 | 32.87974 | -108.46089 | 24918 ft | 254 kts | 267° |
| 2026-05-05 19:10 | 32.88184 | -108.48194 | 24916 ft | 255 kts | 267° |
| 2026-05-05 19:10 | 32.88393 | -108.50291 | 24914 ft | 257 kts | 267° |
| 2026-05-05 19:10 | 32.88600 | -108.52391 | 24907 ft | 257 kts | 267° |
| 2026-05-05 19:10 | 32.88806 | -108.54482 | 24902 ft | 256 kts | 267° |
| 2026-05-05 19:11 | 32.89015 | -108.56595 | 24907 ft | 256 kts | 267° |
| 2026-05-05 19:11 | 32.89224 | -108.58715 | 24913 ft | 256 kts | 267° |
| 2026-05-05 19:11 | 32.89426 | -108.60796 | 24906 ft | 257 kts | 267° |
| 2026-05-05 19:11 | 32.89635 | -108.62925 | 24902 ft | 257 kts | 267° |
| 2026-05-05 19:12 | 32.89841 | -108.65025 | 24902 ft | 256 kts | 267° |
| 2026-05-05 19:12 | 32.90048 | -108.67142 | 24902 ft | 256 kts | 267° |
| 2026-05-05 19:12 | 32.90252 | -108.69240 | 24902 ft | 256 kts | 267° |
| 2026-05-05 19:12 | 32.90455 | -108.71335 | 24906 ft | 257 kts | 267° |
| 2026-05-05 19:13 | 32.90661 | -108.73456 | 24901 ft | 257 kts | 267° |
| 2026-05-05 19:13 | 32.90869 | -108.75585 | 24897 ft | 257 kts | 267° |
| 2026-05-05 19:13 | 32.91072 | -108.77692 | 24896 ft | 258 kts | 267° |
| 2026-05-05 19:13 | 32.91277 | -108.79812 | 24899 ft | 258 kts | 267° |
| 2026-05-05 19:14 | 32.91481 | -108.81925 | 24898 ft | 258 kts | 267° |
| 2026-05-05 19:14 | 32.91685 | -108.84060 | 24893 ft | 259 kts | 267° |
| 2026-05-05 19:14 | 32.91889 | -108.86179 | 24897 ft | 260 kts | 267° |
| 2026-05-05 19:14 | 32.92095 | -108.88302 | 24888 ft | 260 kts | 267° |
| 2026-05-05 19:15 | 32.92299 | -108.90453 | 24888 ft | 260 kts | 267° |
| 2026-05-05 19:15 | 32.92502 | -108.92583 | 24892 ft | 259 kts | 267° |
| 2026-05-05 19:15 | 32.92707 | -108.94723 | 24889 ft | 260 kts | 267° |
| 2026-05-05 19:15 | 32.92910 | -108.96849 | 24890 ft | 260 kts | 267° |
| 2026-05-05 19:16 | 32.93113 | -108.98992 | 24889 ft | 260 kts | 267° |
| 2026-05-05 19:16 | 32.93315 | -109.01129 | 24901 ft | 261 kts | 267° |
| 2026-05-05 19:16 | 32.93522 | -109.03297 | 24890 ft | 262 kts | 267° |
| 2026-05-05 19:16 | 32.93723 | -109.05420 | 24887 ft | 261 kts | 267° |
| 2026-05-05 19:17 | 32.93925 | -109.07591 | 24891 ft | 262 kts | 267° |
| 2026-05-05 19:17 | 32.94127 | -109.09738 | 24883 ft | 262 kts | 267° |
| 2026-05-05 19:17 | 32.94332 | -109.11893 | 24885 ft | 262 kts | 267° |
| 2026-05-05 19:17 | 32.94535 | -109.14061 | 24884 ft | 262 kts | 267° |
| 2026-05-05 19:18 | 32.94737 | -109.16233 | 24878 ft | 263 kts | 267° |
| 2026-05-05 19:18 | 32.94938 | -109.18375 | 24879 ft | 263 kts | 267° |
| 2026-05-05 19:18 | 32.95139 | -109.20526 | 24879 ft | 263 kts | 267° |
| 2026-05-05 19:18 | 32.95340 | -109.22690 | 24877 ft | 263 kts | 267° |
| 2026-05-05 19:19 | 32.95543 | -109.24875 | 24881 ft | 263 kts | 267° |
| 2026-05-05 19:19 | 32.95744 | -109.27030 | 24885 ft | 263 kts | 267° |
| 2026-05-05 19:19 | 32.95943 | -109.29189 | 24895 ft | 263 kts | 267° |
| 2026-05-05 19:19 | 32.96143 | -109.31356 | 24895 ft | 263 kts | 267° |
| 2026-05-05 19:20 | 32.96346 | -109.33546 | 24902 ft | 263 kts | 267° |
| 2026-05-05 19:20 | 32.96525 | -109.35696 | 24909 ft | 262 kts | 266° |
| 2026-05-05 19:20 | 32.96721 | -109.37855 | 24910 ft | 265 kts | 269° |
| 2026-05-05 19:20 | 32.96955 | -109.39300 | 24920 ft | 267 kts | 272° |
| 2026-05-05 19:21 | 32.97426 | -109.42186 | 24917 ft | 265 kts | 268° |
| 2026-05-05 19:21 | 32.97608 | -109.43621 | 24924 ft | 263 kts | 269° |
| 2026-05-05 19:21 | 32.97908 | -109.45797 | 24929 ft | 264 kts | 270° |
| 2026-05-05 19:21 | 32.98346 | -109.48649 | 24944 ft | 264 kts | 270° |
| 2026-05-05 19:22 | 32.98550 | -109.50087 | 24945 ft | 264 kts | 270° |
| 2026-05-05 19:22 | 32.98850 | -109.52259 | 24957 ft | 266 kts | 270° |
| 2026-05-05 19:22 | 32.99166 | -109.54421 | 24950 ft | 267 kts | 270° |
| 2026-05-05 19:22 | 32.99490 | -109.56603 | 24932 ft | 265 kts | 270° |
| 2026-05-05 19:23 | 32.99791 | -109.58754 | 24954 ft | 265 kts | 269° |
| 2026-05-05 19:23 | 33.00104 | -109.60928 | 24911 ft | 263 kts | 269° |
| 2026-05-05 19:23 | 33.00414 | -109.63054 | 24914 ft | 261 kts | 269° |
| 2026-05-05 19:23 | 33.00717 | -109.65191 | 24878 ft | 258 kts | 269° |
| 2026-05-05 19:24 | 33.01008 | -109.67259 | 24867 ft | 255 kts | 269° |
| 2026-05-05 19:24 | 33.01304 | -109.69352 | 24910 ft | 257 kts | 269° |
| 2026-05-05 19:24 | 33.01612 | -109.71469 | 24923 ft | 259 kts | 270° |
| 2026-05-05 19:24 | 33.01913 | -109.73575 | 24933 ft | 260 kts | 269° |
| 2026-05-05 19:25 | 33.02217 | -109.75725 | 24929 ft | 261 kts | 269° |
| 2026-05-05 19:25 | 33.02518 | -109.77847 | 24933 ft | 262 kts | 270° |
| 2026-05-05 19:25 | 33.02825 | -109.79992 | 24927 ft | 263 kts | 270° |
| 2026-05-05 19:25 | 33.03127 | -109.82117 | 24924 ft | 263 kts | 269° |
| 2026-05-05 19:26 | 33.03434 | -109.84292 | 24916 ft | 264 kts | 269° |
| 2026-05-05 19:26 | 33.03739 | -109.86449 | 24910 ft | 265 kts | 269° |
| 2026-05-05 19:26 | 33.04048 | -109.88628 | 24907 ft | 266 kts | 270° |
| 2026-05-05 19:26 | 33.04353 | -109.90791 | 24900 ft | 266 kts | 269° |
| 2026-05-05 19:27 | 33.04663 | -109.92988 | 24899 ft | 266 kts | 269° |
| 2026-05-05 19:27 | 33.04968 | -109.95155 | 24893 ft | 267 kts | 270° |
| 2026-05-05 19:27 | 33.05272 | -109.97317 | 24889 ft | 267 kts | 269° |
| 2026-05-05 19:27 | 33.05581 | -109.99511 | 24880 ft | 267 kts | 269° |
| 2026-05-05 19:28 | 33.05886 | -110.01687 | 24881 ft | 267 kts | 269° |
| 2026-05-05 19:28 | 33.06189 | -110.03849 | 24882 ft | 266 kts | 269° |
| 2026-05-05 19:28 | 33.06495 | -110.06044 | 24882 ft | 266 kts | 269° |
| 2026-05-05 19:28 | 33.06795 | -110.08197 | 24885 ft | 266 kts | 269° |
| 2026-05-05 19:29 | 33.07103 | -110.10390 | 24886 ft | 265 kts | 269° |
| 2026-05-05 19:29 | 33.07402 | -110.12538 | 24887 ft | 265 kts | 269° |
| 2026-05-05 19:29 | 33.07704 | -110.14725 | 24888 ft | 265 kts | 269° |
| 2026-05-05 19:29 | 33.08004 | -110.16879 | 24890 ft | 264 kts | 269° |
| 2026-05-05 19:30 | 33.08302 | -110.19024 | 24894 ft | 265 kts | 269° |
| 2026-05-05 19:30 | 33.08604 | -110.21216 | 24894 ft | 266 kts | 269° |
| 2026-05-05 19:30 | 33.08904 | -110.23378 | 24896 ft | 266 kts | 269° |
| 2026-05-05 19:30 | 33.09209 | -110.25577 | 24897 ft | 267 kts | 269° |
| 2026-05-05 19:31 | 33.09508 | -110.27753 | 24893 ft | 268 kts | 269° |
| 2026-05-05 19:31 | 33.09812 | -110.29950 | 24892 ft | 269 kts | 269° |
| 2026-05-05 19:31 | 33.10117 | -110.32165 | 24896 ft | 269 kts | 269° |
| 2026-05-05 19:31 | 33.10419 | -110.34372 | 24893 ft | 270 kts | 269° |
| 2026-05-05 19:32 | 33.10723 | -110.36581 | 24892 ft | 271 kts | 269° |
| 2026-05-05 19:32 | 33.11028 | -110.38798 | 24897 ft | 271 kts | 269° |
| 2026-05-05 19:32 | 33.11329 | -110.41001 | 24890 ft | 271 kts | 269° |
| 2026-05-05 19:32 | 33.11636 | -110.43239 | 24894 ft | 271 kts | 269° |
| 2026-05-05 19:33 | 33.11937 | -110.45442 | 24899 ft | 271 kts | 269° |
| 2026-05-05 19:33 | 33.12239 | -110.47675 | 24899 ft | 271 kts | 269° |
| 2026-05-05 19:33 | 33.12544 | -110.49886 | 24901 ft | 271 kts | 269° |
| 2026-05-05 19:33 | 33.12845 | -110.52119 | 24903 ft | 271 kts | 269° |
| 2026-05-05 19:34 | 33.13142 | -110.54319 | 24904 ft | 272 kts | 269° |
| 2026-05-05 19:34 | 33.13447 | -110.56550 | 24896 ft | 271 kts | 269° |
| 2026-05-05 19:34 | 33.13747 | -110.58753 | 24904 ft | 271 kts | 269° |
| 2026-05-05 19:35 | 33.14352 | -110.63235 | 24905 ft | 272 kts | 269° |
| 2026-05-05 19:35 | 33.14651 | -110.65450 | 24901 ft | 269 kts | 268° |
| 2026-05-05 19:35 | 33.14320 | -110.67192 | 23151 ft | 236 kts | 218° |
| 2026-05-05 19:35 | 33.12578 | -110.68502 | 18522 ft | 365 kts | 217° |